createdAt,value
2022-08-20T00:00:20.809Z,99384.41
2022-08-20T00:03:38.876Z,99379.50
2022-08-20T00:06:41.664Z,99377.66
2022-08-20T00:09:44.846Z,99386.84
2022-08-20T00:12:48.870Z,99387.44
2022-08-20T00:15:52.835Z,99399.19
2022-08-20T00:18:55.496Z,99415.50
2022-08-20T00:21:58.642Z,99411.31
2022-08-20T00:25:02.433Z,99419.78
2022-08-20T00:28:07.108Z,99418.69
2022-08-20T00:31:12.309Z,99415.00
2022-08-20T00:34:15.254Z,99398.50
2022-08-20T00:37:17.964Z,99405.47
2022-08-20T00:40:34.428Z,99400.97
2022-08-20T00:43:42.110Z,99403.16
2022-08-20T00:46:45.953Z,99400.16
2022-08-20T00:49:48.516Z,99398.50
2022-08-20T00:52:53.081Z,99391.53
2022-08-20T00:55:56.155Z,99387.75
2022-08-20T00:58:59.407Z,99382.69
2022-08-20T01:02:02.935Z,99373.16
2022-08-20T01:05:09.330Z,99356.75
2022-08-20T01:08:12.554Z,99353.37
2022-08-20T01:11:22.012Z,99346.00
2022-08-20T01:14:27.454Z,99352.75
2022-08-20T01:17:32.964Z,99342.97
2022-08-20T01:20:39.262Z,99330.69
2022-08-20T01:23:51.904Z,99318.88
2022-08-20T01:26:55.448Z,99297.38
2022-08-20T01:29:59.092Z,99294.50
2022-08-20T01:33:02.615Z,99297.69
2022-08-20T01:36:06.676Z,99286.38
2022-08-20T01:39:13.630Z,99289.06
2022-08-20T01:42:21.307Z,99282.09
2022-08-20T01:45:26.871Z,99262.75
2022-08-20T01:48:30.800Z,99258.34
2022-08-20T01:51:33.436Z,99256.38
2022-08-20T01:54:36.420Z,99251.19
2022-08-20T01:57:39.287Z,99273.34
2022-08-20T02:00:42.577Z,99289.94
2022-08-20T02:03:45.403Z,99315.53
2022-08-20T02:06:57.074Z,99341.03
2022-08-20T02:10:00.663Z,99354.88
2022-08-20T02:13:05.496Z,99358.31
2022-08-20T02:16:08.657Z,99361.03
2022-08-20T02:19:17.286Z,99359.28
2022-08-20T02:22:24.495Z,99353.41
2022-08-20T02:25:31.127Z,99356.91
2022-08-20T02:28:34.747Z,99350.84
2022-08-20T02:31:38.474Z,99350.59
2022-08-20T02:35:03.675Z,99351.53
2022-08-20T02:38:07.192Z,99348.38
2022-08-20T02:41:10.445Z,99350.88
2022-08-20T02:44:14.112Z,99346.03
2022-08-20T02:47:17.275Z,99350.69
2022-08-20T02:50:22.290Z,99346.44
2022-08-20T02:53:29.327Z,99348.56
2022-08-20T02:56:32.191Z,99356.00
2022-08-20T02:59:34.748Z,99364.88
2022-08-20T03:02:37.628Z,99373.00
2022-08-20T03:05:44.421Z,99379.69
2022-08-20T03:08:47.273Z,99382.63
2022-08-20T03:11:49.816Z,99393.56
2022-08-20T03:14:52.663Z,99404.72
2022-08-20T03:17:55.798Z,99414.22
2022-08-20T03:20:58.845Z,99413.16
2022-08-20T03:24:01.375Z,99407.16
2022-08-20T03:27:04.468Z,99420.59
2022-08-20T03:30:09.810Z,99428.22
2022-08-20T03:33:12.735Z,99430.34
2022-08-20T03:36:15.367Z,99429.66
2022-08-20T03:39:25.244Z,99423.34
2022-08-20T03:42:27.859Z,99428.03
2022-08-20T03:45:32.212Z,99413.78
2022-08-20T03:48:34.847Z,99407.22
2022-08-20T03:51:57.626Z,99427.91
2022-08-20T03:55:00.367Z,99453.28
2022-08-20T03:58:06.451Z,99449.16
2022-08-20T04:01:12.601Z,99440.12
2022-08-20T04:04:32.072Z,99450.94
2022-08-20T04:07:34.826Z,99443.75
2022-08-20T04:10:38.299Z,99454.09
2022-08-20T04:13:43.373Z,99446.81
2022-08-20T04:16:46.460Z,99437.63
2022-08-20T04:19:51.687Z,99452.44
2022-08-20T04:22:58.639Z,99467.72
2022-08-20T04:26:02.212Z,99449.94
2022-08-20T04:29:05.156Z,99422.09
2022-08-20T04:32:08.308Z,99423.84
2022-08-20T04:35:18.223Z,99415.28
2022-08-20T04:38:24.060Z,99386.84
2022-08-20T04:41:27.025Z,99382.63
2022-08-20T04:44:29.636Z,99399.81
2022-08-20T04:47:34.606Z,99421.78
2022-08-20T04:50:38.719Z,99438.00
2022-08-20T04:53:42.717Z,99436.00
2022-08-20T04:56:45.548Z,99427.06
2022-08-20T04:59:48.402Z,99421.22
2022-08-20T05:02:50.936Z,99420.50
2022-08-20T05:05:54.519Z,99421.78
2022-08-20T05:08:58.232Z,99427.69
2022-08-20T05:12:01.076Z,99431.78
2022-08-20T05:15:05.028Z,99434.59
2022-08-20T05:18:08.872Z,99437.87
2022-08-20T05:21:11.385Z,99426.47
2022-08-20T05:24:18.506Z,99424.94
2022-08-20T05:27:24.762Z,99421.31
2022-08-20T05:30:33.430Z,99419.72
2022-08-20T05:33:38.774Z,99423.97
2022-08-20T05:36:49.321Z,99420.09
2022-08-20T05:39:52.456Z,99426.41
2022-08-20T05:42:55.495Z,99427.00
2022-08-20T05:45:58.529Z,99424.97
2022-08-20T05:49:02.067Z,99420.78
2022-08-20T05:52:05.483Z,99427.47
2022-08-20T05:55:09.997Z,99425.84
2022-08-20T05:58:19.025Z,99427.56
2022-08-20T06:01:22.078Z,99421.75
2022-08-20T06:04:24.991Z,99425.78
2022-08-20T06:07:28.729Z,99429.41
2022-08-20T06:10:32.070Z,99428.19
2022-08-20T06:13:34.756Z,99433.69
2022-08-20T06:16:37.770Z,99428.59
2022-08-20T06:19:42.744Z,99415.81
2022-08-20T06:22:47.154Z,99413.91
2022-08-20T06:25:50.446Z,99418.47
2022-08-20T06:28:54.265Z,99426.66
2022-08-20T06:31:57.093Z,99419.28
2022-08-20T06:35:02.295Z,99425.97
2022-08-20T06:38:06.611Z,99421.94
2022-08-20T06:41:09.435Z,99429.13
2022-08-20T06:44:11.947Z,99438.06
2022-08-20T06:47:15.172Z,99451.87
2022-08-20T06:50:22.052Z,99446.69
2022-08-20T06:53:25.497Z,99442.72
2022-08-20T06:56:28.238Z,99434.53
2022-08-20T06:59:31.245Z,99435.22
2022-08-20T07:02:34.355Z,99440.53
2022-08-20T07:05:42.274Z,99444.16
2022-08-20T07:08:44.960Z,99443.97
2022-08-20T07:11:49.216Z,99455.97
2022-08-20T07:14:51.728Z,99476.44
2022-08-20T07:18:01.837Z,99474.59
2022-08-20T07:21:04.579Z,99492.25
2022-08-20T07:24:07.783Z,99484.25
2022-08-20T07:27:10.729Z,99499.50
2022-08-20T07:30:56.654Z,99503.09
2022-08-20T07:34:00.081Z,99500.09
2022-08-20T07:37:03.561Z,99521.72
2022-08-20T07:40:07.078Z,99516.47
2022-08-20T07:43:10.899Z,99520.81
2022-08-20T07:46:17.703Z,99516.28
2022-08-20T07:49:23.651Z,99520.06
2022-08-20T07:52:26.275Z,99544.22
2022-08-20T07:55:30.299Z,99551.03
2022-08-20T07:58:33.352Z,99562.31
2022-08-20T08:01:36.660Z,99578.97
2022-08-20T08:04:39.881Z,99600.94
2022-08-20T08:07:43.881Z,99627.81
2022-08-20T08:10:48.115Z,99648.44
2022-08-20T08:14:02.160Z,99672.22
2022-08-20T08:17:06.045Z,99706.72
2022-08-20T08:20:09.556Z,99709.41
2022-08-20T08:23:24.684Z,99719.25
2022-08-20T08:26:34.311Z,99709.16
2022-08-20T08:29:37.593Z,99697.53
2022-08-20T08:33:02.940Z,99680.84
2022-08-20T08:36:09.843Z,99674.94
2022-08-20T08:39:12.595Z,99674.25
2022-08-20T08:42:30.256Z,99669.34
2022-08-20T08:45:45.791Z,99661.69
2022-08-20T08:48:51.112Z,99660.50
2022-08-20T08:51:59.102Z,99639.66
2022-08-20T08:55:04.966Z,99632.97
2022-08-20T08:58:17.147Z,99635.22
2022-08-20T09:01:55.288Z,99628.75
2022-08-20T09:04:45.412Z,99615.84
2022-08-20T09:07:49.882Z,99619.72
2022-08-20T09:10:53.485Z,99638.19
2022-08-20T09:13:56.839Z,99665.22
2022-08-20T09:16:59.404Z,99696.97
2022-08-20T09:20:02.670Z,99733.91
2022-08-20T09:23:06.730Z,99769.56
2022-08-20T09:26:09.714Z,99755.09
2022-08-20T09:29:12.538Z,99702.75
2022-08-20T09:32:21.349Z,99717.09
2022-08-20T09:35:23.931Z,99722.84
2022-08-20T09:38:26.988Z,99696.41
2022-08-20T09:41:30.889Z,99674.63
2022-08-20T09:44:36.719Z,99666.03
2022-08-20T09:47:54.717Z,99651.09
2022-08-20T09:51:00.314Z,99648.50
2022-08-20T09:54:02.888Z,99620.06
2022-08-20T09:57:07.454Z,99582.06
2022-08-20T10:00:12.390Z,99560.56
2022-08-20T10:03:16.506Z,99539.75
2022-08-20T10:06:20.716Z,99541.53
2022-08-20T10:09:23.723Z,99567.19
2022-08-20T10:12:26.657Z,99544.22
2022-08-20T10:15:30.400Z,99547.47
2022-08-20T10:18:34.759Z,99537.25
2022-08-20T10:21:39.036Z,99542.81
2022-08-20T10:24:42.387Z,99532.34
2022-08-20T10:27:45.082Z,99532.88
2022-08-20T10:30:47.936Z,99530.63
2022-08-20T10:33:50.520Z,99530.47
2022-08-20T10:36:53.432Z,99537.56
2022-08-20T10:39:56.696Z,99556.34
2022-08-20T10:42:59.578Z,99570.47
2022-08-20T10:46:02.476Z,99571.19
2022-08-20T10:49:05.284Z,99573.31
2022-08-20T10:52:07.903Z,99573.66
2022-08-20T10:55:11.718Z,99586.31
2022-08-20T10:58:14.479Z,99588.56
2022-08-20T11:01:32.641Z,99590.69
2022-08-20T11:04:36.934Z,99580.13
2022-08-20T11:07:55.339Z,99587.41
2022-08-20T11:10:58.948Z,99591.75
2022-08-20T11:14:01.827Z,99586.44
2022-08-20T11:17:05.007Z,99597.37
2022-08-20T11:20:08.838Z,99575.28
2022-08-20T11:23:11.402Z,99581.53
2022-08-20T11:26:21.434Z,99576.69
2022-08-20T11:29:24.866Z,99580.78
2022-08-20T11:32:27.858Z,99585.62
2022-08-20T11:35:43.264Z,99582.31
2022-08-20T11:38:53.171Z,99568.66
2022-08-20T11:41:55.937Z,99578.88
2022-08-20T11:44:58.748Z,99567.47
2022-08-20T11:48:01.277Z,99571.56
2022-08-20T11:51:05.151Z,99578.12
2022-08-20T11:54:07.651Z,99581.09
2022-08-20T11:57:11.314Z,99584.59
2022-08-20T12:00:18.757Z,99581.87
2022-08-20T12:03:21.720Z,99575.97
2022-08-20T12:06:24.358Z,99571.25
2022-08-20T12:09:27.175Z,99568.53
2022-08-20T12:12:29.669Z,99557.59
2022-08-20T12:15:34.346Z,99554.00
2022-08-20T12:18:37.027Z,99553.84
2022-08-20T12:21:39.880Z,99549.75
2022-08-20T12:24:42.455Z,99540.97
2022-08-20T12:27:45.873Z,99531.97
2022-08-20T12:30:48.513Z,99528.13
2022-08-20T12:33:51.326Z,99515.06
2022-08-20T12:37:05.351Z,99510.31
2022-08-20T12:40:11.941Z,99513.81
2022-08-20T12:43:14.557Z,99504.34
2022-08-20T12:46:19.043Z,99495.53
2022-08-20T12:49:21.571Z,99482.53
2022-08-20T12:52:25.159Z,99487.19
2022-08-20T12:55:28.446Z,99488.75
2022-08-20T12:58:31.264Z,99487.78
2022-08-20T13:01:33.840Z,99480.94
2022-08-20T13:04:36.805Z,99488.25
2022-08-20T13:07:40.397Z,99491.88
2022-08-20T13:10:45.747Z,99491.06
2022-08-20T13:13:48.422Z,99491.28
2022-08-20T13:16:56.494Z,99484.00
2022-08-20T13:19:59.129Z,99482.31
2022-08-20T13:23:04.017Z,99469.94
2022-08-20T13:26:06.992Z,99466.03
2022-08-20T13:29:09.876Z,99471.47
2022-08-20T13:32:12.759Z,99468.25
2022-08-20T13:35:15.648Z,99462.06
2022-08-20T13:38:18.346Z,99459.31
2022-08-20T13:41:21.242Z,99458.00
2022-08-20T13:44:32.835Z,99459.97
2022-08-20T13:47:37.587Z,99465.88
2022-08-20T13:50:40.315Z,99474.59
2022-08-20T13:53:43.193Z,99469.00
2022-08-20T13:56:46.605Z,99480.50
2022-08-20T13:59:53.256Z,99486.09
2022-08-20T14:02:56.012Z,99503.50
2022-08-20T14:06:00.539Z,99500.06
2022-08-20T14:09:03.122Z,99509.06
2022-08-20T14:12:06.689Z,99503.16
2022-08-20T14:15:10.136Z,99498.25
2022-08-20T14:18:14.529Z,99504.63
2022-08-20T14:21:18.326Z,99487.16
2022-08-20T14:24:21.150Z,99479.53
2022-08-20T14:27:27.812Z,99469.84
2022-08-20T14:30:34.094Z,99461.22
2022-08-20T14:33:37.807Z,99448.47
2022-08-20T14:36:43.050Z,99452.44
2022-08-20T14:39:47.648Z,99437.75
2022-08-20T14:42:54.863Z,99445.69
2022-08-20T14:45:57.459Z,99436.75
2022-08-20T14:49:00.341Z,99451.03
2022-08-20T14:52:03.071Z,99461.81
2022-08-20T14:55:09.425Z,99463.53
2022-08-20T14:58:12.924Z,99454.97
2022-08-20T15:01:15.915Z,99471.22
2022-08-20T15:04:19.467Z,99470.66
2022-08-20T15:07:23.786Z,99477.47
2022-08-20T15:10:30.224Z,99489.56
2022-08-20T15:13:33.072Z,99486.09
2022-08-20T15:16:35.819Z,99470.00
2022-08-20T15:19:38.668Z,99471.00
2022-08-20T15:22:41.960Z,99487.84
2022-08-20T15:25:44.846Z,99484.31
2022-08-20T15:28:47.622Z,99478.62
2022-08-20T15:31:51.369Z,99484.13
2022-08-20T15:34:53.889Z,99482.34
2022-08-20T15:37:58.639Z,99478.22
2022-08-20T15:41:01.553Z,99479.03
2022-08-20T15:44:04.688Z,99478.38
2022-08-20T15:47:16.437Z,99487.66
2022-08-20T15:50:33.567Z,99493.97
2022-08-20T15:53:41.778Z,99491.94
2022-08-20T15:57:01.937Z,99497.16
2022-08-20T16:00:11.375Z,99505.47
2022-08-20T16:03:23.901Z,99510.72
2022-08-20T16:06:31.262Z,99513.44
2022-08-20T16:10:06.790Z,99515.66
2022-08-20T16:13:31.616Z,99514.34
2022-08-20T16:16:43.824Z,99512.38
2022-08-20T16:19:56.140Z,99510.56
2022-08-20T16:22:59.052Z,99507.34
2022-08-20T16:26:20.412Z,99506.53
2022-08-20T16:30:04.366Z,99511.47
2022-08-20T16:33:11.534Z,99505.81
2022-08-20T16:36:57.105Z,99499.56
2022-08-20T16:40:21.652Z,99496.28
2022-08-20T16:43:31.967Z,99495.94
2022-08-20T16:46:38.267Z,99502.66
2022-08-20T16:49:48.046Z,99511.38
2022-08-20T16:52:53.760Z,99509.41
2022-08-20T16:55:56.766Z,99506.13
2022-08-20T16:59:26.439Z,99512.28
2022-08-20T17:02:30.127Z,99511.22
2022-08-20T17:05:38.470Z,99522.28
2022-08-20T17:08:48.176Z,99526.91
2022-08-20T17:11:52.361Z,99528.47
2022-08-20T17:14:57.531Z,99520.25
2022-08-20T17:18:26.534Z,99523.66
2022-08-20T17:21:35.534Z,99502.47
2022-08-20T17:24:38.638Z,99510.28
2022-08-20T17:27:41.512Z,99507.25
2022-08-20T17:30:44.395Z,99507.50
2022-08-20T17:33:47.229Z,99507.16
2022-08-20T17:36:54.187Z,99509.53
2022-08-20T17:40:06.670Z,99509.78
2022-08-20T17:43:10.788Z,99504.03
2022-08-20T17:46:16.560Z,99511.00
2022-08-20T17:49:23.453Z,99506.53
2022-08-20T17:52:33.100Z,99502.66
2022-08-20T21:08:02.404Z,99435.94
2022-08-20T21:11:05.431Z,99441.34
2022-08-20T21:14:08.042Z,99444.87
2022-08-20T21:17:14.931Z,99442.75
2022-08-20T21:20:17.621Z,99444.37
2022-08-20T21:23:20.471Z,99438.41
2022-08-20T21:26:42.860Z,99433.47
2022-08-20T21:29:45.839Z,99423.22
2022-08-20T21:32:49.040Z,99430.50
2022-08-20T21:35:52.018Z,99425.59
2022-08-20T21:38:54.568Z,99436.97
2022-08-20T21:41:59.563Z,99434.84
2022-08-20T21:45:02.521Z,99435.69
2022-08-20T21:48:07.497Z,99433.00
2022-08-20T21:51:10.108Z,99442.97
2022-08-20T21:54:12.898Z,99439.69
2022-08-20T21:57:27.062Z,99448.59
2022-08-20T22:00:45.492Z,99453.66
2022-08-20T22:03:49.608Z,99452.81
2022-08-20T22:06:54.609Z,99458.34
2022-08-20T22:09:57.431Z,99440.25
2022-08-20T22:12:59.971Z,99445.44
2022-08-20T22:16:06.355Z,99437.34
2022-08-20T22:19:10.754Z,99440.03
2022-08-20T22:22:17.496Z,99447.91
2022-08-20T22:25:20.097Z,99439.44
2022-08-20T22:28:23.426Z,99441.44
2022-08-20T22:31:29.024Z,99440.75
2022-08-20T22:34:34.145Z,99433.81
2022-08-20T22:37:36.893Z,99433.53
2022-08-20T22:40:39.765Z,99429.56
2022-08-20T22:43:55.646Z,99425.94
2022-08-20T22:47:06.309Z,99424.16
2022-08-20T22:50:09.740Z,99425.25
2022-08-20T22:53:13.740Z,99422.44
2022-08-20T22:56:21.897Z,99410.31
2022-08-20T22:59:25.855Z,99413.59
2022-08-20T23:02:28.377Z,99425.19
2022-08-20T23:05:34.014Z,99425.91
2022-08-20T23:08:38.023Z,99416.63
2022-08-20T23:11:41.073Z,99413.81
2022-08-20T23:14:43.617Z,99418.88
2022-08-20T23:17:46.817Z,99411.81
2022-08-20T23:20:53.643Z,99406.41
2022-08-20T23:23:56.473Z,99399.13
2022-08-20T23:26:59.904Z,99395.72
2022-08-20T23:30:04.422Z,99396.06
2022-08-20T23:33:07.003Z,99408.41
2022-08-20T23:36:10.842Z,99396.66
2022-08-20T23:39:13.743Z,99392.78
2022-08-20T23:42:17.245Z,99390.09
2022-08-20T23:45:20.501Z,99382.56
2022-08-20T23:48:23.354Z,99374.84
2022-08-20T23:51:25.963Z,99379.41
2022-08-20T23:54:30.821Z,99380.91
2022-08-20T23:57:34.381Z,99376.13
